HTPE/PMA METAR and TAF weather

Enter ICAO airport designator
Station Type Date Time Source
HTPE METAR 2019/07/11 16:00 UTC NOAA

HTPE 111600Z 15008KT 9999 FEW016 26/21 Q1015


Station Type Date Time Source
HTPE Decoded METAR 2019/07/11 16:00 UTC NOAA

Pemba / Karume Airport, Tanzania (HTPE) 05-15S 039-49E
Jul 11, 2019 - 12:00 PM EDT / 2019.07.11 1600 UTC
Wind: from the SSE (150 degrees) at 9 MPH (8 KT):0
Visibility: greater than 7 mile(s):0
Sky conditions: mostly clear
Temperature: 78 F (26 C)
Dew Point: 69 F (21 C)
Relative Humidity: 73%
Pressure (altimeter): 29.97 in. Hg (1015 hPa)
ob: HTPE 111600Z 15008KT 9999 FEW016 26/21 Q1015
cycle: 16

Station Type Date Time Source
HTPE TAF 2012/09/13 12:46 UTC NOAA

TAF HTPE 131000Z 1312/1412 16010KT 9999 SHRA SCT024 BKN080
BECMG 1315/1318 SCT021
BECMG 1321/1324 12005KT FEW019
BECMG 1403/1406 17005KT SCT018
BECMG 1409/1412 15010KT 9999 FEW024

Example: see airport list